Port Heiden, Alaska
Current Conditions -  °F | °C
As of 1:16 AM on Sunday 25 Jan 2015 (Local Time) from PAPH Reporting Station
Broken Clouds Broken Clouds  
Wind Chill: -9°   Ceiling: 2200
Heat Index:   Visibility: 10mi
Dew Point: -4°   Wind: 9mph
Humidity: 66%   Direction: 40°NE
Pressure: 29.88"   Gusts: NA
Location:  56.95°N, 158.63°W
Report Text: PAPH 251016Z AUTO 04008KT 10SM BKN022 M15/M20 A2988 RMK AO1
Loading
Personal Weather Stations






























Interactive Weather Map New forecast layout! Learn more

10-Day Weather Forecast

Advertisements
Track Severe Weather on mobile